sensor_id;sensor_type;location;lat;lon;timestamp;pressure;altitude;pressure_sealevel;temperature;humidity
40998;BME280;26740;45.944;12.480;2023-02-19T00:01:32;102160.28;;;7.97;100.00
40998;BME280;26740;45.944;12.480;2023-02-19T00:04:06;102162.97;;;8.19;100.00
40998;BME280;26740;45.944;12.480;2023-02-19T00:06:34;102164.06;;;7.90;100.00
40998;BME280;26740;45.944;12.480;2023-02-19T00:09:00;102163.16;;;7.83;100.00
40998;BME280;26740;45.944;12.480;2023-02-19T00:11:28;102152.44;;;7.73;100.00
40998;BME280;26740;45.944;12.480;2023-02-19T00:14:16;102152.16;;;7.61;100.00
40998;BME280;26740;45.944;12.480;2023-02-19T00:16:41;102148.06;;;7.57;100.00
40998;BME280;26740;45.944;12.480;2023-02-19T00:19:11;102141.13;;;7.61;100.00
40998;BME280;26740;45.944;12.480;2023-02-19T00:21:37;102144.97;;;7.67;100.00
40998;BME280;26740;45.944;12.480;2023-02-19T00:24:04;102136.44;;;7.62;100.00
40998;BME280;26740;45.944;12.480;2023-02-19T00:26:30;102130.06;;;7.61;100.00
40998;BME280;26740;45.944;12.480;2023-02-19T00:28:57;102128.78;;;7.64;100.00
40998;BME280;26740;45.944;12.480;2023-02-19T00:31:26;102132.44;;;7.71;100.00
40998;BME280;26740;45.944;12.480;2023-02-19T00:33:54;102130.66;;;7.56;100.00
40998;BME280;26740;45.944;12.480;2023-02-19T00:36:20;102126.38;;;7.54;100.00
40998;BME280;26740;45.944;12.480;2023-02-19T00:38:46;102129.69;;;7.43;100.00
40998;BME280;26740;45.944;12.480;2023-02-19T00:41:13;102125.03;;;7.43;100.00
40998;BME280;26740;45.944;12.480;2023-02-19T00:43:56;102129.03;;;7.40;100.00
40998;BME280;26740;45.944;12.480;2023-02-19T00:46:33;102122.41;;;7.35;100.00
40998;BME280;26740;45.944;12.480;2023-02-19T00:49:00;102124.88;;;7.51;100.00
40998;BME280;26740;45.944;12.480;2023-02-19T00:51:30;102132.50;;;7.49;100.00
40998;BME280;26740;45.944;12.480;2023-02-19T00:53:57;102128.38;;;7.38;100.00
40998;BME280;26740;45.944;12.480;2023-02-19T00:56:22;102126.72;;;7.44;100.00
40998;BME280;26740;45.944;12.480;2023-02-19T00:58:48;102128.78;;;7.35;100.00
40998;BME280;26740;45.944;12.480;2023-02-19T01:01:14;102122.72;;;7.25;100.00
40998;BME280;26740;45.944;12.480;2023-02-19T01:03:40;102123.59;;;7.26;100.00
40998;BME280;26740;45.944;12.480;2023-02-19T01:06:07;102122.72;;;7.25;100.00
40998;BME280;26740;45.944;12.480;2023-02-19T01:08:34;102117.00;;;7.27;100.00
40998;BME280;26740;45.944;12.480;2023-02-19T01:11:01;102111.94;;;7.30;100.00
40998;BME280;26740;45.944;12.480;2023-02-19T01:13:27;102114.91;;;7.29;100.00
40998;BME280;26740;45.944;12.480;2023-02-19T01:15:57;102103.63;;;7.24;100.00
40998;BME280;26740;45.944;12.480;2023-02-19T01:18:26;102106.88;;;7.34;100.00
40998;BME280;26740;45.944;12.480;2023-02-19T01:20:52;102111.00;;;7.45;100.00
40998;BME280;26740;45.944;12.480;2023-02-19T01:23:17;102108.78;;;7.62;100.00
40998;BME280;26740;45.944;12.480;2023-02-19T01:25:43;102104.31;;;7.60;100.00
40998;BME280;26740;45.944;12.480;2023-02-19T01:28:09;102104.16;;;7.40;100.00
40998;BME280;26740;45.944;12.480;2023-02-19T01:30:37;102095.81;;;7.34;100.00
40998;BME280;26740;45.944;12.480;2023-02-19T01:33:04;102098.13;;;7.30;100.00
40998;BME280;26740;45.944;12.480;2023-02-19T01:35:29;102090.72;;;7.31;100.00
40998;BME280;26740;45.944;12.480;2023-02-19T01:37:55;102094.97;;;7.33;100.00
40998;BME280;26740;45.944;12.480;2023-02-19T01:40:21;102094.22;;;7.46;100.00
40998;BME280;26740;45.944;12.480;2023-02-19T01:42:47;102088.28;;;7.49;100.00
40998;BME280;26740;45.944;12.480;2023-02-19T01:45:23;102089.31;;;7.42;100.00
40998;BME280;26740;45.944;12.480;2023-02-19T01:48:48;102090.25;;;7.27;100.00
40998;BME280;26740;45.944;12.480;2023-02-19T01:51:13;102093.22;;;7.26;100.00
40998;BME280;26740;45.944;12.480;2023-02-19T01:53:43;102096.38;;;7.22;100.00
40998;BME280;26740;45.944;12.480;2023-02-19T01:56:10;102090.03;;;7.29;100.00
40998;BME280;26740;45.944;12.480;2023-02-19T01:58:37;102092.47;;;7.38;100.00
40998;BME280;26740;45.944;12.480;2023-02-19T02:01:05;102083.06;;;7.33;100.00
40998;BME280;26740;45.944;12.480;2023-02-19T02:03:33;102076.91;;;7.31;100.00
40998;BME280;26740;45.944;12.480;2023-02-19T02:08:52;102071.16;;;7.32;100.00
40998;BME280;26740;45.944;12.480;2023-02-19T02:11:41;102071.97;;;7.26;100.00
40998;BME280;26740;45.944;12.480;2023-02-19T02:14:09;102067.25;;;7.20;100.00
40998;BME280;26740;45.944;12.480;2023-02-19T02:20:03;102060.41;;;7.16;100.00
40998;BME280;26740;45.944;12.480;2023-02-19T02:25:45;102056.78;;;7.15;100.00
40998;BME280;26740;45.944;12.480;2023-02-19T02:31:18;102050.88;;;7.18;100.00
40998;BME280;26740;45.944;12.480;2023-02-19T02:36:24;102041.00;;;7.09;100.00
40998;BME280;26740;45.944;12.480;2023-02-19T02:38:52;102043.31;;;7.06;100.00
40998;BME280;26740;45.944;12.480;2023-02-19T02:41:19;102044.47;;;7.18;100.00
40998;BME280;26740;45.944;12.480;2023-02-19T02:43:45;102035.53;;;7.16;100.00
40998;BME280;26740;45.944;12.480;2023-02-19T02:46:13;102039.38;;;7.15;100.00
40998;BME280;26740;45.944;12.480;2023-02-19T02:48:48;102035.34;;;7.17;100.00
40998;BME280;26740;45.944;12.480;2023-02-19T02:51:40;102032.44;;;7.26;100.00
40998;BME280;26740;45.944;12.480;2023-02-19T02:54:17;102025.59;;;7.21;100.00
40998;BME280;26740;45.944;12.480;2023-02-19T02:57:01;102022.44;;;7.25;100.00
40998;BME280;26740;45.944;12.480;2023-02-19T02:59:32;102008.75;;;7.16;100.00
40998;BME280;26740;45.944;12.480;2023-02-19T03:02:02;102006.81;;;7.10;100.00
40998;BME280;26740;45.944;12.480;2023-02-19T03:08:06;101999.31;;;7.04;100.00
40998;BME280;26740;45.944;12.480;2023-02-19T03:10:53;102003.03;;;7.18;100.00
40998;BME280;26740;45.944;12.480;2023-02-19T03:13:33;102000.34;;;7.25;100.00
40998;BME280;26740;45.944;12.480;2023-02-19T03:16:27;101995.00;;;7.23;100.00
40998;BME280;26740;45.944;12.480;2023-02-19T03:19:15;102001.19;;;7.25;100.00
40998;BME280;26740;45.944;12.480;2023-02-19T03:21:50;101997.38;;;7.26;100.00
40998;BME280;26740;45.944;12.480;2023-02-19T03:24:20;101996.34;;;7.34;100.00
40998;BME280;26740;45.944;12.480;2023-02-19T03:27:06;101984.09;;;7.43;100.00
40998;BME280;26740;45.944;12.480;2023-02-19T03:29:34;101987.91;;;7.42;100.00
40998;BME280;26740;45.944;12.480;2023-02-19T03:32:07;101991.31;;;7.44;100.00
40998;BME280;26740;45.944;12.480;2023-02-19T03:34:41;101989.41;;;7.45;100.00
40998;BME280;26740;45.944;12.480;2023-02-19T03:37:18;101993.88;;;7.46;100.00
40998;BME280;26740;45.944;12.480;2023-02-19T03:39:48;101982.41;;;7.49;100.00
40998;BME280;26740;45.944;12.480;2023-02-19T03:45:12;101980.31;;;7.51;100.00
40998;BME280;26740;45.944;12.480;2023-02-19T03:47:49;101985.38;;;7.47;100.00
40998;BME280;26740;45.944;12.480;2023-02-19T03:50:21;101988.94;;;7.41;100.00
40998;BME280;26740;45.944;12.480;2023-02-19T03:52:54;101979.78;;;7.34;100.00
40998;BME280;26740;45.944;12.480;2023-02-19T03:55:30;101982.97;;;7.37;100.00
40998;BME280;26740;45.944;12.480;2023-02-19T03:58:12;101979.25;;;7.52;100.00
40998;BME280;26740;45.944;12.480;2023-02-19T04:00:50;101986.72;;;7.58;100.00
40998;BME280;26740;45.944;12.480;2023-02-19T04:03:28;101985.00;;;7.57;100.00
40998;BME280;26740;45.944;12.480;2023-02-19T04:06:06;101980.59;;;7.63;100.00
40998;BME280;26740;45.944;12.480;2023-02-19T04:08:36;101981.84;;;7.60;100.00
40998;BME280;26740;45.944;12.480;2023-02-19T04:11:03;101990.09;;;7.53;100.00
40998;BME280;26740;45.944;12.480;2023-02-19T04:13:33;101985.19;;;7.49;100.00
40998;BME280;26740;45.944;12.480;2023-02-19T04:16:06;101993.38;;;7.35;100.00
40998;BME280;26740;45.944;12.480;2023-02-19T04:18:37;101985.91;;;7.29;100.00
40998;BME280;26740;45.944;12.480;2023-02-19T04:21:05;101989.94;;;7.27;100.00
40998;BME280;26740;45.944;12.480;2023-02-19T04:23:36;101978.78;;;7.42;100.00
40998;BME280;26740;45.944;12.480;2023-02-19T04:26:04;101980.06;;;7.46;100.00
40998;BME280;26740;45.944;12.480;2023-02-19T04:28:33;101986.69;;;7.51;100.00
40998;BME280;26740;45.944;12.480;2023-02-19T04:30:58;101982.88;;;7.52;100.00
40998;BME280;26740;45.944;12.480;2023-02-19T04:33:24;101989.44;;;7.51;100.00
40998;BME280;26740;45.944;12.480;2023-02-19T04:35:49;101986.03;;;7.49;100.00
40998;BME280;26740;45.944;12.480;2023-02-19T04:38:15;101978.38;;;7.51;100.00
40998;BME280;26740;45.944;12.480;2023-02-19T04:40:41;101983.50;;;7.54;100.00
40998;BME280;26740;45.944;12.480;2023-02-19T04:43:06;101966.94;;;7.54;100.00
40998;BME280;26740;45.944;12.480;2023-02-19T04:45:32;101967.38;;;7.58;100.00
40998;BME280;26740;45.944;12.480;2023-02-19T04:47:58;101965.44;;;7.58;100.00
40998;BME280;26740;45.944;12.480;2023-02-19T04:50:24;101970.34;;;7.56;100.00
40998;BME280;26740;45.944;12.480;2023-02-19T04:52:49;101962.03;;;7.56;100.00
40998;BME280;26740;45.944;12.480;2023-02-19T04:55:15;101968.25;;;7.65;100.00
40998;BME280;26740;45.944;12.480;2023-02-19T04:57:41;101963.38;;;7.67;100.00
40998;BME280;26740;45.944;12.480;2023-02-19T05:00:07;101960.56;;;7.60;100.00
40998;BME280;26740;45.944;12.480;2023-02-19T05:02:34;101960.56;;;7.54;100.00
40998;BME280;26740;45.944;12.480;2023-02-19T05:05:00;101955.94;;;7.68;100.00
40998;BME280;26740;45.944;12.480;2023-02-19T05:07:25;101955.03;;;7.60;100.00
40998;BME280;26740;45.944;12.480;2023-02-19T05:09:51;101948.41;;;7.55;100.00
40998;BME280;26740;45.944;12.480;2023-02-19T05:12:17;101950.53;;;7.53;100.00
40998;BME280;26740;45.944;12.480;2023-02-19T05:14:42;101943.94;;;7.47;100.00
40998;BME280;26740;45.944;12.480;2023-02-19T05:17:08;101944.97;;;7.39;100.00
40998;BME280;26740;45.944;12.480;2023-02-19T05:19:33;101946.63;;;7.34;100.00
40998;BME280;26740;45.944;12.480;2023-02-19T05:21:59;101949.63;;;7.39;100.00
40998;BME280;26740;45.944;12.480;2023-02-19T05:24:24;101940.72;;;7.44;100.00
40998;BME280;26740;45.944;12.480;2023-02-19T05:26:51;101942.66;;;7.50;100.00
40998;BME280;26740;45.944;12.480;2023-02-19T05:29:17;101942.25;;;7.53;100.00
40998;BME280;26740;45.944;12.480;2023-02-19T05:31:43;101940.19;;;7.68;100.00
40998;BME280;26740;45.944;12.480;2023-02-19T05:34:08;101930.78;;;7.56;100.00
40998;BME280;26740;45.944;12.480;2023-02-19T05:36:34;101913.41;;;7.69;100.00
40998;BME280;26740;45.944;12.480;2023-02-19T05:39:02;101920.22;;;7.73;100.00
40998;BME280;26740;45.944;12.480;2023-02-19T05:41:28;101916.91;;;7.43;100.00
40998;BME280;26740;45.944;12.480;2023-02-19T05:43:55;101926.38;;;7.27;100.00
40998;BME280;26740;45.944;12.480;2023-02-19T05:46:24;101929.13;;;7.20;100.00
40998;BME280;26740;45.944;12.480;2023-02-19T05:48:51;101927.81;;;7.16;100.00
40998;BME280;26740;45.944;12.480;2023-02-19T05:51:19;101932.28;;;7.17;100.00
40998;BME280;26740;45.944;12.480;2023-02-19T05:53:45;101925.50;;;7.19;100.00
40998;BME280;26740;45.944;12.480;2023-02-19T05:56:26;101915.88;;;7.09;100.00
40998;BME280;26740;45.944;12.480;2023-02-19T05:58:53;101915.53;;;7.18;100.00
40998;BME280;26740;45.944;12.480;2023-02-19T06:01:21;101916.25;;;7.40;100.00
40998;BME280;26740;45.944;12.480;2023-02-19T06:03:47;101918.13;;;7.33;100.00
40998;BME280;26740;45.944;12.480;2023-02-19T06:06:14;101916.31;;;7.12;100.00
40998;BME280;26740;45.944;12.480;2023-02-19T06:08:40;101922.91;;;7.11;100.00
40998;BME280;26740;45.944;12.480;2023-02-19T06:11:06;101921.84;;;7.12;100.00
40998;BME280;26740;45.944;12.480;2023-02-19T06:13:32;101909.09;;;7.11;100.00
40998;BME280;26740;45.944;12.480;2023-02-19T06:15:57;101916.31;;;7.12;100.00
40998;BME280;26740;45.944;12.480;2023-02-19T06:18:23;101918.44;;;7.10;100.00
40998;BME280;26740;45.944;12.480;2023-02-19T06:20:48;101914.75;;;6.96;100.00
40998;BME280;26740;45.944;12.480;2023-02-19T06:23:14;101915.44;;;7.05;100.00
40998;BME280;26740;45.944;12.480;2023-02-19T06:25:40;101921.19;;;7.10;100.00
40998;BME280;26740;45.944;12.480;2023-02-19T06:28:05;101924.22;;;7.15;100.00
40998;BME280;26740;45.944;12.480;2023-02-19T06:30:31;101919.97;;;7.19;100.00
40998;BME280;26740;45.944;12.480;2023-02-19T06:32:56;101914.06;;;7.22;100.00
40998;BME280;26740;45.944;12.480;2023-02-19T06:35:22;101912.25;;;7.50;100.00
40998;BME280;26740;45.944;12.480;2023-02-19T06:37:48;101905.84;;;7.36;100.00
40998;BME280;26740;45.944;12.480;2023-02-19T06:40:14;101911.53;;;7.28;100.00
40998;BME280;26740;45.944;12.480;2023-02-19T06:42:40;101905.59;;;7.31;100.00
40998;BME280;26740;45.944;12.480;2023-02-19T06:45:06;101894.56;;;7.31;100.00
40998;BME280;26740;45.944;12.480;2023-02-19T06:47:32;101891.13;;;7.29;100.00
40998;BME280;26740;45.944;12.480;2023-02-19T06:49:59;101895.63;;;7.36;100.00
40998;BME280;26740;45.944;12.480;2023-02-19T06:52:25;101899.91;;;7.46;100.00
40998;BME280;26740;45.944;12.480;2023-02-19T06:54:51;101904.81;;;7.44;100.00
40998;BME280;26740;45.944;12.480;2023-02-19T06:57:17;101914.78;;;7.45;100.00
40998;BME280;26740;45.944;12.480;2023-02-19T06:59:43;101918.66;;;7.50;100.00
40998;BME280;26740;45.944;12.480;2023-02-19T07:02:10;101939.50;;;7.53;100.00
40998;BME280;26740;45.944;12.480;2023-02-19T07:04:36;101938.66;;;7.52;100.00
40998;BME280;26740;45.944;12.480;2023-02-19T07:07:02;101948.41;;;7.55;100.00
40998;BME280;26740;45.944;12.480;2023-02-19T07:09:28;101939.34;;;7.74;100.00
40998;BME280;26740;45.944;12.480;2023-02-19T07:11:54;101937.69;;;7.87;100.00
40998;BME280;26740;45.944;12.480;2023-02-19T07:14:19;101936.44;;;7.89;100.00
40998;BME280;26740;45.944;12.480;2023-02-19T07:16:45;101932.38;;;7.78;100.00
40998;BME280;26740;45.944;12.480;2023-02-19T07:19:12;101946.97;;;7.66;100.00
40998;BME280;26740;45.944;12.480;2023-02-19T07:21:39;101961.81;;;7.51;100.00
40998;BME280;26740;45.944;12.480;2023-02-19T07:24:07;101953.19;;;7.74;100.00
40998;BME280;26740;45.944;12.480;2023-02-19T07:26:33;101954.44;;;7.65;100.00
40998;BME280;26740;45.944;12.480;2023-02-19T07:28:59;101951.44;;;7.60;100.00
40998;BME280;26740;45.944;12.480;2023-02-19T07:31:26;101951.66;;;7.65;100.00
40998;BME280;26740;45.944;12.480;2023-02-19T07:33:52;101939.50;;;7.53;100.00
40998;BME280;26740;45.944;12.480;2023-02-19T07:36:19;101942.25;;;7.53;100.00
40998;BME280;26740;45.944;12.480;2023-02-19T07:38:46;101954.59;;;7.50;100.00
40998;BME280;26740;45.944;12.480;2023-02-19T07:41:12;101961.25;;;7.63;100.00
40998;BME280;26740;45.944;12.480;2023-02-19T07:43:39;101960.16;;;7.64;100.00
40998;BME280;26740;45.944;12.480;2023-02-19T07:46:09;101956.59;;;7.70;100.00
40998;BME280;26740;45.944;12.480;2023-02-19T07:48:36;101951.69;;;7.72;100.00
40998;BME280;26740;45.944;12.480;2023-02-19T07:51:03;101950.00;;;7.77;100.00
40998;BME280;26740;45.944;12.480;2023-02-19T07:53:30;101945.56;;;7.83;100.00
40998;BME280;26740;45.944;12.480;2023-02-19T07:56:01;101953.06;;;8.03;100.00
40998;BME280;26740;45.944;12.480;2023-02-19T07:58:28;101951.16;;;8.10;100.00
40998;BME280;26740;45.944;12.480;2023-02-19T08:00:54;101942.88;;;8.10;100.00
40998;BME280;26740;45.944;12.480;2023-02-19T08:03:20;101941.56;;;7.99;100.00
40998;BME280;26740;45.944;12.480;2023-02-19T08:05:45;101941.16;;;8.02;100.00
40998;BME280;26740;45.944;12.480;2023-02-19T08:08:14;101935.66;;;8.15;100.00
40998;BME280;26740;45.944;12.480;2023-02-19T08:10:40;101945.47;;;8.25;100.00
40998;BME280;26740;45.944;12.480;2023-02-19T08:13:27;101946.72;;;8.09;100.00
40998;BME280;26740;45.944;12.480;2023-02-19T08:18:28;101942.28;;;8.21;100.00
40998;BME280;26740;45.944;12.480;2023-02-19T08:20:55;101948.44;;;8.23;100.00
40998;BME280;26740;45.944;12.480;2023-02-19T08:23:21;101943.34;;;8.33;100.00
40998;BME280;26740;45.944;12.480;2023-02-19T08:25:50;101936.97;;;8.40;100.00
40998;BME280;26740;45.944;12.480;2023-02-19T08:28:16;101946.38;;;8.52;100.00
40998;BME280;26740;45.944;12.480;2023-02-19T08:30:43;101934.47;;;8.58;100.00
40998;BME280;26740;45.944;12.480;2023-02-19T08:33:12;101934.47;;;8.58;100.00
40998;BME280;26740;45.944;12.480;2023-02-19T08:35:37;101940.00;;;8.65;100.00
40998;BME280;26740;45.944;12.480;2023-02-19T08:38:04;101938.94;;;8.79;100.00
40998;BME280;26740;45.944;12.480;2023-02-19T08:40:31;101934.47;;;8.65;100.00
40998;BME280;26740;45.944;12.480;2023-02-19T08:43:11;101933.63;;;8.78;100.00
40998;BME280;26740;45.944;12.480;2023-02-19T08:45:38;101929.13;;;8.83;100.00
40998;BME280;26740;45.944;12.480;2023-02-19T08:48:05;101932.75;;;8.84;100.00
40998;BME280;26740;45.944;12.480;2023-02-19T08:50:31;101937.00;;;8.80;100.00
40998;BME280;26740;45.944;12.480;2023-02-19T08:52:58;101934.03;;;8.75;100.00
40998;BME280;26740;45.944;12.480;2023-02-19T08:55:24;101933.19;;;8.67;100.00
40998;BME280;26740;45.944;12.480;2023-02-19T08:57:49;101932.34;;;8.73;100.00
40998;BME280;26740;45.944;12.480;2023-02-19T09:00:15;101943.19;;;8.95;100.00
40998;BME280;26740;45.944;12.480;2023-02-19T09:02:41;101939.56;;;8.88;100.00
40998;BME280;26740;45.944;12.480;2023-02-19T09:05:06;101932.69;;;9.10;100.00
40998;BME280;26740;45.944;12.480;2023-02-19T09:07:32;101942.09;;;9.16;100.00
40998;BME280;26740;45.944;12.480;2023-02-19T09:09:58;101934.41;;;9.18;100.00
40998;BME280;26740;45.944;12.480;2023-02-19T09:12:24;101937.59;;;9.22;100.00
40998;BME280;26740;45.944;12.480;2023-02-19T09:14:50;101950.56;;;9.28;100.00
40998;BME280;26740;45.944;12.480;2023-02-19T09:17:15;101940.16;;;9.17;100.00
40998;BME280;26740;45.944;12.480;2023-02-19T09:19:41;101942.03;;;9.29;100.00
40998;BME280;26740;45.944;12.480;2023-02-19T09:22:07;101936.28;;;9.31;100.00
40998;BME280;26740;45.944;12.480;2023-02-19T09:24:33;101953.13;;;9.29;100.00
40998;BME280;26740;45.944;12.480;2023-02-19T09:26:58;101961.88;;;9.26;100.00
40998;BME280;26740;45.944;12.480;2023-02-19T09:29:25;101952.72;;;9.26;100.00
40998;BME280;26740;45.944;12.480;2023-02-19T09:31:55;101959.91;;;9.40;100.00
40998;BME280;26740;45.944;12.480;2023-02-19T09:34:22;101954.16;;;9.42;100.00
40998;BME280;26740;45.944;12.480;2023-02-19T09:36:48;101954.38;;;9.40;100.00
40998;BME280;26740;45.944;12.480;2023-02-19T09:39:14;101949.00;;;9.59;100.00
40998;BME280;26740;45.944;12.480;2023-02-19T09:41:46;101952.19;;;9.56;100.00
40998;BME280;26740;45.944;12.480;2023-02-19T09:44:38;101946.63;;;9.62;100.00
40998;BME280;26740;45.944;12.480;2023-02-19T09:47:06;101944.09;;;9.61;100.00
40998;BME280;26740;45.944;12.480;2023-02-19T09:49:38;101946.00;;;9.60;100.00
40998;BME280;26740;45.944;12.480;2023-02-19T09:54:59;101945.69;;;9.30;100.00
40998;BME280;26740;45.944;12.480;2023-02-19T09:57:27;101934.16;;;9.26;100.00
40998;BME280;26740;45.944;12.480;2023-02-19T10:00:06;101938.78;;;9.53;100.00
40998;BME280;26740;45.944;12.480;2023-02-19T10:02:38;101930.63;;;9.64;100.00
40998;BME280;26740;45.944;12.480;2023-02-19T10:05:14;101940.41;;;9.67;100.00
40998;BME280;26740;45.944;12.480;2023-02-19T10:07:47;101938.53;;;9.61;100.00
40998;BME280;26740;45.944;12.480;2023-02-19T10:12:51;101938.63;;;9.27;100.00
40998;BME280;26740;45.944;12.480;2023-02-19T10:15:40;101953.63;;;8.93;100.00
40998;BME280;26740;45.944;12.480;2023-02-19T10:18:09;101938.47;;;9.09;100.00
40998;BME280;26740;45.944;12.480;2023-02-19T10:20:34;101936.75;;;9.21;100.00
40998;BME280;26740;45.944;12.480;2023-02-19T10:23:05;101938.44;;;9.29;100.00
40998;BME280;26740;45.944;12.480;2023-02-19T10:25:32;101928.78;;;9.45;100.00
40998;BME280;26740;45.944;12.480;2023-02-19T10:27:59;101935.97;;;9.59;100.00
40998;BME280;26740;45.944;12.480;2023-02-19T10:30:29;101924.84;;;9.73;100.00
40998;BME280;26740;45.944;12.480;2023-02-19T10:32:59;101940.13;;;9.89;100.00
40998;BME280;26740;45.944;12.480;2023-02-19T10:35:27;101935.44;;;9.82;100.00
40998;BME280;26740;45.944;12.480;2023-02-19T10:37:54;101939.78;;;9.72;100.00
40998;BME280;26740;45.944;12.480;2023-02-19T10:40:25;101932.09;;;9.67;100.00
40998;BME280;26740;45.944;12.480;2023-02-19T10:43:00;101930.81;;;9.76;100.00
40998;BME280;26740;45.944;12.480;2023-02-19T10:45:39;101931.44;;;9.78;100.00
40998;BME280;26740;45.944;12.480;2023-02-19T10:48:22;101923.66;;;9.94;100.00
40998;BME280;26740;45.944;12.480;2023-02-19T10:50:52;101929.75;;;10.09;100.00
40998;BME280;26740;45.944;12.480;2023-02-19T10:56:08;101927.00;;;10.41;100.00
40998;BME280;26740;45.944;12.480;2023-02-19T10:58:34;101924.53;;;10.26;100.00
40998;BME280;26740;45.944;12.480;2023-02-19T11:03:38;101916.28;;;10.44;100.00
40998;BME280;26740;45.944;12.480;2023-02-19T11:06:06;101917.25;;;10.57;100.00
40998;BME280;26740;45.944;12.480;2023-02-19T11:11:05;101914.78;;;10.49;100.00
40998;BME280;26740;45.944;12.480;2023-02-19T11:13:33;101911.78;;;10.75;100.00
40998;BME280;26740;45.944;12.480;2023-02-19T11:16:02;101906.25;;;10.94;100.00
40998;BME280;26740;45.944;12.480;2023-02-19T11:18:32;101906.78;;;10.84;100.00
40998;BME280;26740;45.944;12.480;2023-02-19T11:21:03;101891.78;;;10.67;100.00
40998;BME280;26740;45.944;12.480;2023-02-19T11:23:37;101899.97;;;10.55;100.00
40998;BME280;26740;45.944;12.480;2023-02-19T11:26:19;101896.94;;;10.63;100.00
40998;BME280;26740;45.944;12.480;2023-02-19T11:28:57;101892.00;;;10.65;100.00
40998;BME280;26740;45.944;12.480;2023-02-19T11:31:31;101884.56;;;10.34;100.00
40998;BME280;26740;45.944;12.480;2023-02-19T11:34:32;101878.78;;;10.35;100.00
40998;BME280;26740;45.944;12.480;2023-02-19T11:37:14;101881.31;;;10.87;100.00
40998;BME280;26740;45.944;12.480;2023-02-19T11:39:42;101879.16;;;11.45;100.00
40998;BME280;26740;45.944;12.480;2023-02-19T11:45:07;101883.81;;;11.32;100.00
40998;BME280;26740;45.944;12.480;2023-02-19T11:53:30;101871.06;;;11.43;100.00
40998;BME280;26740;45.944;12.480;2023-02-19T12:15:46;101842.22;;;10.63;100.00
40998;BME280;26740;45.944;12.480;2023-02-19T12:18:08;101840.09;;;11.03;100.00
40998;BME280;26740;45.944;12.480;2023-02-19T12:21:00;101828.22;;;10.95;100.00
40998;BME280;26740;45.944;12.480;2023-02-19T12:40:57;101825.94;;;12.67;100.00
40998;BME280;26740;45.944;12.480;2023-02-19T12:43:25;101835.47;;;12.71;100.00
40998;BME280;26740;45.944;12.480;2023-02-19T12:46:02;101825.72;;;12.03;100.00
40998;BME280;26740;45.944;12.480;2023-02-19T12:48:45;101811.47;;;12.35;100.00
40998;BME280;26740;45.944;12.480;2023-02-19T12:51:23;101813.94;;;12.55;100.00
40998;BME280;26740;45.944;12.480;2023-02-19T12:56:29;101814.53;;;12.33;100.00
40998;BME280;26740;45.944;12.480;2023-02-19T12:59:10;101802.00;;;13.07;100.00
40998;BME280;26740;45.944;12.480;2023-02-19T13:01:59;101802.56;;;13.33;100.00
40998;BME280;26740;45.944;12.480;2023-02-19T13:07:13;101791.84;;;12.06;100.00
40998;BME280;26740;45.944;12.480;2023-02-19T13:09:50;101779.94;;;13.05;100.00
40998;BME280;26740;45.944;12.480;2023-02-19T13:12:38;101772.59;;;12.76;100.00
40998;BME280;26740;45.944;12.480;2023-02-19T13:15:16;101774.69;;;12.45;100.00
40998;BME280;26740;45.944;12.480;2023-02-19T13:17:54;101770.91;;;12.51;100.00
40998;BME280;26740;45.944;12.480;2023-02-19T13:20:38;101770.91;;;12.51;100.00
40998;BME280;26740;45.944;12.480;2023-02-19T13:37:35;101763.16;;;11.64;100.00
40998;BME280;26740;45.944;12.480;2023-02-19T13:40:26;101759.91;;;12.32;100.00
40998;BME280;26740;45.944;12.480;2023-02-19T13:42:57;101761.94;;;11.60;100.00
40998;BME280;26740;45.944;12.480;2023-02-19T13:45:43;101758.50;;;11.46;100.00
40998;BME280;26740;45.944;12.480;2023-02-19T13:48:27;101757.41;;;11.16;100.00
40998;BME280;26740;45.944;12.480;2023-02-19T14:04:24;101749.19;;;11.40;100.00
40998;BME280;26740;45.944;12.480;2023-02-19T14:14:54;101751.75;;;11.53;100.00
40998;BME280;26740;45.944;12.480;2023-02-19T14:22:49;101743.53;;;11.58;100.00
40998;BME280;26740;45.944;12.480;2023-02-19T14:30:49;101738.31;;;11.92;100.00
40998;BME280;26740;45.944;12.480;2023-02-19T14:33:17;101746.94;;;11.61;100.00
40998;BME280;26740;45.944;12.480;2023-02-19T14:35:46;101758.59;;;11.39;100.00
40998;BME280;26740;45.944;12.480;2023-02-19T14:38:40;101761.16;;;11.22;100.00
40998;BME280;26740;45.944;12.480;2023-02-19T14:41:10;101763.50;;;11.25;100.00
40998;BME280;26740;45.944;12.480;2023-02-19T14:43:37;101762.88;;;11.23;100.00
40998;BME280;26740;45.944;12.480;2023-02-19T14:46:23;101765.81;;;11.28;100.00
40998;BME280;26740;45.944;12.480;2023-02-19T14:48:52;101772.28;;;11.22;100.00
40998;BME280;26740;45.944;12.480;2023-02-19T14:51:38;101774.13;;;10.98;100.00
40998;BME280;26740;45.944;12.480;2023-02-19T14:54:16;101769.78;;;11.02;100.00
40998;BME280;26740;45.944;12.480;2023-02-19T14:56:48;101766.69;;;10.92;100.00
40998;BME280;26740;45.944;12.480;2023-02-19T15:01:44;101759.84;;;10.94;100.00
40998;BME280;26740;45.944;12.480;2023-02-19T15:04:24;101769.31;;;10.87;100.00
40998;BME280;26740;45.944;12.480;2023-02-19T15:06:51;101764.63;;;10.87;100.00
40998;BME280;26740;45.944;12.480;2023-02-19T15:09:19;101766.91;;;10.90;100.00
40998;BME280;26740;45.944;12.480;2023-02-19T15:11:46;101769.31;;;11.05;100.00